sensor_id;sensor_type;location;lat;lon;timestamp;pressure;altitude;pressure_sealevel;temperature;humidity
9822;BME280;4950;46.042;14.472;2023-07-13T00:02:22;97734.09;;;23.55;78.56
9822;BME280;4950;46.042;14.472;2023-07-13T00:04:48;97729.84;;;23.54;78.60
9822;BME280;4950;46.042;14.472;2023-07-13T00:07:15;97725.56;;;23.53;78.45
9822;BME280;4950;46.042;14.472;2023-07-13T00:09:45;97727.19;;;23.54;78.82
9822;BME280;4950;46.042;14.472;2023-07-13T00:12:23;97734.09;;;23.65;78.51
9822;BME280;4950;46.042;14.472;2023-07-13T00:14:50;97725.09;;;23.72;78.68
9822;BME280;4950;46.042;14.472;2023-07-13T00:17:18;97708.38;;;23.76;78.42
9822;BME280;4950;46.042;14.472;2023-07-13T00:19:45;97694.91;;;23.83;78.78
9822;BME280;4950;46.042;14.472;2023-07-13T00:22:12;97690.66;;;23.87;78.62
9822;BME280;4950;46.042;14.472;2023-07-13T00:24:38;97694.91;;;23.83;78.41
9822;BME280;4950;46.042;14.472;2023-07-13T00:27:07;97681.66;;;23.83;78.86
9822;BME280;4950;46.042;14.472;2023-07-13T00:29:34;97668.09;;;23.64;78.94
9822;BME280;4950;46.042;14.472;2023-07-13T00:32:02;97648.19;;;23.51;80.50
9822;BME280;4950;46.042;14.472;2023-07-13T00:34:30;97661.44;;;23.46;80.69
9822;BME280;4950;46.042;14.472;2023-07-13T00:36:57;97676.56;;;23.45;81.46
9822;BME280;4950;46.042;14.472;2023-07-13T00:39:24;97700.13;;;23.47;80.83
9822;BME280;4950;46.042;14.472;2023-07-13T00:41:51;97705.97;;;23.54;80.62
9822;BME280;4950;46.042;14.472;2023-07-13T00:44:19;97702.03;;;23.62;80.53
9822;BME280;4950;46.042;14.472;2023-07-13T00:46:46;97700.16;;;23.73;79.88
9822;BME280;4950;46.042;14.472;2023-07-13T00:49:15;97691.19;;;23.79;79.35
9822;BME280;4950;46.042;14.472;2023-07-13T00:51:47;97689.03;;;23.76;80.07
9822;BME280;4950;46.042;14.472;2023-07-13T00:54:17;97688.00;;;23.82;79.80
9822;BME280;4950;46.042;14.472;2023-07-13T00:56:47;97689.59;;;23.88;78.88
9822;BME280;4950;46.042;14.472;2023-07-13T00:59:16;97710.03;;;23.93;78.81
9822;BME280;4950;46.042;14.472;2023-07-13T01:01:44;97711.34;;;23.95;78.91
9822;BME280;4950;46.042;14.472;2023-07-13T01:04:11;97717.44;;;23.96;78.70
9822;BME280;4950;46.042;14.472;2023-07-13T01:06:39;97742.66;;;23.98;78.71
9822;BME280;4950;46.042;14.472;2023-07-13T01:09:11;97771.53;;;24.00;78.32
9822;BME280;4950;46.042;14.472;2023-07-13T01:11:38;97817.94;;;23.87;78.14
9822;BME280;4950;46.042;14.472;2023-07-13T01:14:07;97830.31;;;23.66;78.02
9822;BME280;4950;46.042;14.472;2023-07-13T01:16:36;97853.06;;;23.52;77.18
9822;BME280;4950;46.042;14.472;2023-07-13T01:19:07;97850.88;;;23.38;73.25
9822;BME280;4950;46.042;14.472;2023-07-13T01:21:40;97833.34;;;23.27;69.95
9822;BME280;4950;46.042;14.472;2023-07-13T01:24:08;97821.13;;;23.21;70.34
9822;BME280;4950;46.042;14.472;2023-07-13T01:26:34;97831.22;;;23.24;70.20
9822;BME280;4950;46.042;14.472;2023-07-13T01:29:01;97885.25;;;23.23;70.87
9822;BME280;4950;46.042;14.472;2023-07-13T01:31:28;97977.28;;;23.05;71.76
9822;BME280;4950;46.042;14.472;2023-07-13T01:33:54;97978.47;;;22.93;71.83
9822;BME280;4950;46.042;14.472;2023-07-13T01:36:22;97921.81;;;22.94;74.71
9822;BME280;4950;46.042;14.472;2023-07-13T01:38:50;97925.84;;;23.01;77.17
9822;BME280;4950;46.042;14.472;2023-07-13T01:41:17;97885.38;;;23.06;77.73
9822;BME280;4950;46.042;14.472;2023-07-13T01:43:44;97893.78;;;22.98;76.74
9822;BME280;4950;46.042;14.472;2023-07-13T01:46:10;97905.97;;;22.99;76.72
9822;BME280;4950;46.042;14.472;2023-07-13T01:48:37;97889.09;;;23.05;77.18
9822;BME280;4950;46.042;14.472;2023-07-13T01:51:04;97893.91;;;23.13;76.92
9822;BME280;4950;46.042;14.472;2023-07-13T01:53:30;97869.31;;;23.18;76.70
9822;BME280;4950;46.042;14.472;2023-07-13T01:55:58;97862.63;;;23.10;77.03
9822;BME280;4950;46.042;14.472;2023-07-13T01:58:25;97851.50;;;23.03;77.48
9822;BME280;4950;46.042;14.472;2023-07-13T02:00:52;97850.56;;;22.87;76.98
9822;BME280;4950;46.042;14.472;2023-07-13T02:03:18;97850.22;;;22.78;77.40
9822;BME280;4950;46.042;14.472;2023-07-13T02:05:45;97865.50;;;22.66;77.53
9822;BME280;4950;46.042;14.472;2023-07-13T02:08:12;97878.09;;;22.54;77.46
9822;BME280;4950;46.042;14.472;2023-07-13T02:10:38;97882.28;;;22.50;77.58
9822;BME280;4950;46.042;14.472;2023-07-13T02:13:07;97896.31;;;22.50;77.52
9822;BME280;4950;46.042;14.472;2023-07-13T02:15:34;97916.72;;;22.55;77.04
9822;BME280;4950;46.042;14.472;2023-07-13T02:18:04;97934.16;;;22.51;76.89
9822;BME280;4950;46.042;14.472;2023-07-13T02:20:31;97934.78;;;22.36;76.52
9822;BME280;4950;46.042;14.472;2023-07-13T02:22:57;97926.31;;;22.34;76.95
9822;BME280;4950;46.042;14.472;2023-07-13T02:25:24;97928.81;;;22.23;77.41
9822;BME280;4950;46.042;14.472;2023-07-13T02:27:52;97961.16;;;22.25;76.96
9822;BME280;4950;46.042;14.472;2023-07-13T02:30:20;98010.09;;;22.28;77.35
9822;BME280;4950;46.042;14.472;2023-07-13T02:32:50;98043.97;;;22.09;77.86
9822;BME280;4950;46.042;14.472;2023-07-13T02:35:16;98051.47;;;21.95;80.37
9822;BME280;4950;46.042;14.472;2023-07-13T02:40:10;97950.63;;;21.86;82.95
9822;BME280;4950;46.042;14.472;2023-07-13T02:42:36;97914.91;;;21.84;83.10
9822;BME280;4950;46.042;14.472;2023-07-13T02:45:03;97891.66;;;21.86;83.50
9822;BME280;4950;46.042;14.472;2023-07-13T02:47:33;97863.63;;;21.85;83.64
9822;BME280;4950;46.042;14.472;2023-07-13T02:49:59;97873.09;;;21.81;83.71
9822;BME280;4950;46.042;14.472;2023-07-13T02:52:26;97844.47;;;21.73;83.90
9822;BME280;4950;46.042;14.472;2023-07-13T02:54:53;97831.75;;;21.47;85.41
9822;BME280;4950;46.042;14.472;2023-07-13T02:57:20;97852.88;;;21.08;87.91
9822;BME280;4950;46.042;14.472;2023-07-13T02:59:47;97886.63;;;21.06;88.95
9822;BME280;4950;46.042;14.472;2023-07-13T03:02:13;97911.66;;;21.21;89.04
9822;BME280;4950;46.042;14.472;2023-07-13T03:04:42;97903.38;;;21.34;89.25
9822;BME280;4950;46.042;14.472;2023-07-13T03:07:08;97876.25;;;21.39;88.74
9822;BME280;4950;46.042;14.472;2023-07-13T03:09:35;97839.94;;;20.90;89.13
9822;BME280;4950;46.042;14.472;2023-07-13T03:12:03;97840.13;;;20.66;89.55
9822;BME280;4950;46.042;14.472;2023-07-13T03:14:29;97837.84;;;20.58;91.88
9822;BME280;4950;46.042;14.472;2023-07-13T03:16:56;97833.56;;;20.69;91.27
9822;BME280;4950;46.042;14.472;2023-07-13T03:19:23;97812.22;;;20.70;87.46
9822;BME280;4950;46.042;14.472;2023-07-13T03:21:51;97822.25;;;20.40;88.20
9822;BME280;4950;46.042;14.472;2023-07-13T03:24:18;97837.69;;;20.48;88.91
9822;BME280;4950;46.042;14.472;2023-07-13T03:26:45;97843.00;;;20.65;88.56
9822;BME280;4950;46.042;14.472;2023-07-13T03:29:12;97837.41;;;20.78;88.88
9822;BME280;4950;46.042;14.472;2023-07-13T03:31:39;97839.38;;;20.88;88.16
9822;BME280;4950;46.042;14.472;2023-07-13T03:34:06;97838.19;;;20.96;87.35
9822;BME280;4950;46.042;14.472;2023-07-13T03:36:33;97830.88;;;21.03;86.62
9822;BME280;4950;46.042;14.472;2023-07-13T03:39:02;97814.66;;;20.94;84.94
9822;BME280;4950;46.042;14.472;2023-07-13T03:41:29;97807.00;;;20.59;85.66
9822;BME280;4950;46.042;14.472;2023-07-13T03:43:57;97823.00;;;20.69;86.58
9822;BME280;4950;46.042;14.472;2023-07-13T03:46:23;97828.59;;;20.73;86.80
9822;BME280;4950;46.042;14.472;2023-07-13T03:48:50;97833.94;;;20.78;86.84
9822;BME280;4950;46.042;14.472;2023-07-13T03:51:17;97833.38;;;20.93;85.46
9822;BME280;4950;46.042;14.472;2023-07-13T03:53:45;97834.91;;;20.88;85.61
9822;BME280;4950;46.042;14.472;2023-07-13T03:56:15;97843.38;;;20.90;85.68
9822;BME280;4950;46.042;14.472;2023-07-13T03:58:44;97844.34;;;21.01;85.37
9822;BME280;4950;46.042;14.472;2023-07-13T04:01:12;97846.16;;;21.01;84.73
9822;BME280;4950;46.042;14.472;2023-07-13T04:03:39;97841.84;;;21.12;85.16
9822;BME280;4950;46.042;14.472;2023-07-13T04:06:08;97846.38;;;21.16;84.96
9822;BME280;4950;46.042;14.472;2023-07-13T04:08:40;97843.06;;;21.26;85.14
9822;BME280;4950;46.042;14.472;2023-07-13T04:11:07;97841.09;;;21.38;85.15
9822;BME280;4950;46.042;14.472;2023-07-13T04:13:35;97850.31;;;21.36;85.18
9822;BME280;4950;46.042;14.472;2023-07-13T04:16:02;97859.00;;;21.31;85.79
9822;BME280;4950;46.042;14.472;2023-07-13T04:18:29;97862.66;;;21.30;85.07
9822;BME280;4950;46.042;14.472;2023-07-13T04:20:55;97855.84;;;21.34;84.63
9822;BME280;4950;46.042;14.472;2023-07-13T04:23:22;97855.06;;;21.34;84.99
9822;BME280;4950;46.042;14.472;2023-07-13T04:25:51;97861.75;;;21.41;84.27
9822;BME280;4950;46.042;14.472;2023-07-13T04:28:19;97862.16;;;21.50;84.01
9822;BME280;4950;46.042;14.472;2023-07-13T04:30:47;97867.50;;;21.55;84.34
9822;BME280;4950;46.042;14.472;2023-07-13T04:33:14;97866.41;;;21.51;84.57
9822;BME280;4950;46.042;14.472;2023-07-13T04:35:42;97876.97;;;21.51;85.08
9822;BME280;4950;46.042;14.472;2023-07-13T04:38:09;97868.63;;;21.59;84.87
9822;BME280;4950;46.042;14.472;2023-07-13T04:40:38;97873.59;;;21.56;85.00
9822;BME280;4950;46.042;14.472;2023-07-13T04:43:05;97869.78;;;21.46;84.51
9822;BME280;4950;46.042;14.472;2023-07-13T04:45:32;97884.03;;;21.45;85.28
9822;BME280;4950;46.042;14.472;2023-07-13T04:48:00;97877.22;;;21.49;84.41
9822;BME280;4950;46.042;14.472;2023-07-13T04:50:26;97869.03;;;21.51;84.96
9822;BME280;4950;46.042;14.472;2023-07-13T04:52:53;97871.44;;;21.53;84.78
9822;BME280;4950;46.042;14.472;2023-07-13T04:55:20;97879.97;;;21.60;84.93
9822;BME280;4950;46.042;14.472;2023-07-13T04:57:47;97886.88;;;21.61;84.63
9822;BME280;4950;46.042;14.472;2023-07-13T05:00:15;97892.22;;;21.66;83.73
9822;BME280;4950;46.042;14.472;2023-07-13T05:02:43;97894.00;;;21.60;84.21
9822;BME280;4950;46.042;14.472;2023-07-13T05:05:12;97900.00;;;21.56;83.74
9822;BME280;4950;46.042;14.472;2023-07-13T05:07:39;97902.91;;;21.54;83.44
9822;BME280;4950;46.042;14.472;2023-07-13T05:10:08;97899.22;;;21.55;83.31
9822;BME280;4950;46.042;14.472;2023-07-13T05:12:35;97898.97;;;21.57;82.40
9822;BME280;4950;46.042;14.472;2023-07-13T05:15:02;97901.63;;;21.57;81.69
9822;BME280;4950;46.042;14.472;2023-07-13T05:17:29;97903.19;;;21.58;81.84
9822;BME280;4950;46.042;14.472;2023-07-13T05:19:56;97904.25;;;21.57;81.80
9822;BME280;4950;46.042;14.472;2023-07-13T05:22:24;97893.94;;;21.55;81.62
9822;BME280;4950;46.042;14.472;2023-07-13T05:24:51;97892.34;;;21.54;81.44
9822;BME280;4950;46.042;14.472;2023-07-13T05:27:17;97899.03;;;21.62;81.19
9822;BME280;4950;46.042;14.472;2023-07-13T05:29:44;97895.81;;;21.60;81.05
9822;BME280;4950;46.042;14.472;2023-07-13T05:32:11;97894.88;;;21.66;81.20
9822;BME280;4950;46.042;14.472;2023-07-13T05:34:38;97892.78;;;21.68;81.57
9822;BME280;4950;46.042;14.472;2023-07-13T05:37:04;97894.88;;;21.66;81.97
9822;BME280;4950;46.042;14.472;2023-07-13T05:39:32;97893.75;;;21.62;82.00
9822;BME280;4950;46.042;14.472;2023-07-13T05:41:59;97902.41;;;21.57;82.09
9822;BME280;4950;46.042;14.472;2023-07-13T05:44:26;97907.22;;;21.60;81.77
9822;BME280;4950;46.042;14.472;2023-07-13T05:46:52;97902.81;;;21.66;81.17
9822;BME280;4950;46.042;14.472;2023-07-13T05:49:20;97905.88;;;21.80;81.10
9822;BME280;4950;46.042;14.472;2023-07-13T05:51:46;97903.16;;;21.75;81.51
9822;BME280;4950;46.042;14.472;2023-07-13T05:54:13;97903.63;;;21.72;81.42
9822;BME280;4950;46.042;14.472;2023-07-13T05:56:41;97905.81;;;21.75;81.65
9822;BME280;4950;46.042;14.472;2023-07-13T05:59:08;97914.34;;;21.82;80.78
9822;BME280;4950;46.042;14.472;2023-07-13T06:01:35;97915.34;;;21.76;81.27
9822;BME280;4950;46.042;14.472;2023-07-13T06:04:01;97913.66;;;21.69;80.47
9822;BME280;4950;46.042;14.472;2023-07-13T06:06:28;97912.69;;;21.76;79.24
9822;BME280;4950;46.042;14.472;2023-07-13T06:08:55;97913.41;;;21.71;79.45
9822;BME280;4950;46.042;14.472;2023-07-13T06:11:24;97902.53;;;21.67;79.59
9822;BME280;4950;46.042;14.472;2023-07-13T06:13:52;97901.97;;;21.65;79.20
9822;BME280;4950;46.042;14.472;2023-07-13T06:16:19;97903.81;;;21.65;79.50
9822;BME280;4950;46.042;14.472;2023-07-13T06:18:46;97898.06;;;21.68;79.72
9822;BME280;4950;46.042;14.472;2023-07-13T06:21:15;97912.16;;;21.74;79.91
9822;BME280;4950;46.042;14.472;2023-07-13T06:23:43;97910.66;;;21.83;79.64
9822;BME280;4950;46.042;14.472;2023-07-13T06:26:11;97926.34;;;21.89;79.73
9822;BME280;4950;46.042;14.472;2023-07-13T06:28:38;97915.03;;;21.94;79.90
9822;BME280;4950;46.042;14.472;2023-07-13T06:31:07;97919.56;;;21.99;79.89
9822;BME280;4950;46.042;14.472;2023-07-13T06:33:34;97926.44;;;22.00;80.16
9822;BME280;4950;46.042;14.472;2023-07-13T06:36:03;97930.75;;;22.06;79.80
9822;BME280;4950;46.042;14.472;2023-07-13T06:38:30;97922.06;;;22.11;79.48
9822;BME280;4950;46.042;14.472;2023-07-13T06:40:57;97913.41;;;22.15;80.08
9822;BME280;4950;46.042;14.472;2023-07-13T06:43:23;97913.19;;;22.22;79.80
9822;BME280;4950;46.042;14.472;2023-07-13T06:45:51;97909.69;;;22.16;79.79
9822;BME280;4950;46.042;14.472;2023-07-13T06:48:19;97910.47;;;22.12;80.98
9822;BME280;4950;46.042;14.472;2023-07-13T06:50:47;97909.13;;;22.09;80.81
9822;BME280;4950;46.042;14.472;2023-07-13T06:53:14;97904.63;;;22.09;80.82
9822;BME280;4950;46.042;14.472;2023-07-13T06:55:43;97915.75;;;22.12;80.88
9822;BME280;4950;46.042;14.472;2023-07-13T06:58:10;97906.25;;;22.16;80.60
9822;BME280;4950;46.042;14.472;2023-07-13T07:00:36;97900.63;;;22.07;81.82
9822;BME280;4950;46.042;14.472;2023-07-13T07:03:05;97896.13;;;22.07;81.77
9822;BME280;4950;46.042;14.472;2023-07-13T07:05:33;97898.84;;;22.13;82.18
9822;BME280;4950;46.042;14.472;2023-07-13T07:08:00;97896.25;;;22.18;81.50
9822;BME280;4950;46.042;14.472;2023-07-13T07:10:29;97892.97;;;22.11;80.92
9822;BME280;4950;46.042;14.472;2023-07-13T07:12:56;97886.19;;;22.15;81.69
9822;BME280;4950;46.042;14.472;2023-07-13T07:15:23;97892.84;;;22.22;81.25
9822;BME280;4950;46.042;14.472;2023-07-13T07:17:50;97888.50;;;22.33;80.84
9822;BME280;4950;46.042;14.472;2023-07-13T07:20:16;97888.81;;;22.42;80.68
9822;BME280;4950;46.042;14.472;2023-07-13T07:22:44;97898.69;;;22.52;80.27
9822;BME280;4950;46.042;14.472;2023-07-13T07:25:11;97901.69;;;22.60;79.87
9822;BME280;4950;46.042;14.472;2023-07-13T07:27:38;97900.69;;;22.66;79.99
9822;BME280;4950;46.042;14.472;2023-07-13T07:30:06;97901.53;;;22.72;79.75
9822;BME280;4950;46.042;14.472;2023-07-13T07:32:32;97901.03;;;22.75;80.37
9822;BME280;4950;46.042;14.472;2023-07-13T07:34:59;97895.53;;;22.82;79.10
9822;BME280;4950;46.042;14.472;2023-07-13T07:37:26;97906.41;;;22.85;79.42
9822;BME280;4950;46.042;14.472;2023-07-13T07:39:54;97893.19;;;22.91;79.53
9822;BME280;4950;46.042;14.472;2023-07-13T07:42:20;97892.69;;;22.94;78.78
9822;BME280;4950;46.042;14.472;2023-07-13T07:44:47;97892.47;;;23.00;78.05
9822;BME280;4950;46.042;14.472;2023-07-13T07:47:14;97877.97;;;23.03;77.39
9822;BME280;4950;46.042;14.472;2023-07-13T07:49:40;97869.78;;;23.10;77.19
9822;BME280;4950;46.042;14.472;2023-07-13T07:52:07;97868.50;;;23.17;77.93
9822;BME280;4950;46.042;14.472;2023-07-13T07:54:34;97873.31;;;23.20;76.88
9822;BME280;4950;46.042;14.472;2023-07-13T07:57:02;97877.59;;;23.26;76.71
9822;BME280;4950;46.042;14.472;2023-07-13T07:59:29;97884.00;;;23.36;77.57
9822;BME280;4950;46.042;14.472;2023-07-13T08:01:56;97885.34;;;23.43;78.05
9822;BME280;4950;46.042;14.472;2023-07-13T08:04:22;97881.91;;;23.43;75.98
9822;BME280;4950;46.042;14.472;2023-07-13T08:06:49;97875.56;;;23.49;76.73
9822;BME280;4950;46.042;14.472;2023-07-13T08:09:15;97885.41;;;23.54;76.19
9822;BME280;4950;46.042;14.472;2023-07-13T08:11:42;97886.78;;;23.61;76.64
9822;BME280;4950;46.042;14.472;2023-07-13T08:14:10;97901.63;;;23.68;76.49
9822;BME280;4950;46.042;14.472;2023-07-13T08:16:37;97893.69;;;23.73;75.95
9822;BME280;4950;46.042;14.472;2023-07-13T08:19:03;97895.91;;;23.81;76.22
9822;BME280;4950;46.042;14.472;2023-07-13T08:21:31;97902.28;;;23.85;75.71
9822;BME280;4950;46.042;14.472;2023-07-13T08:23:58;97900.94;;;23.88;75.42
9822;BME280;4950;46.042;14.472;2023-07-13T08:26:24;97886.09;;;23.92;75.64
9822;BME280;4950;46.042;14.472;2023-07-13T08:28:51;97873.66;;;23.97;74.97
9822;BME280;4950;46.042;14.472;2023-07-13T08:31:19;97881.09;;;24.00;74.55
9822;BME280;4950;46.042;14.472;2023-07-13T08:33:46;97887.47;;;24.04;74.06
9822;BME280;4950;46.042;14.472;2023-07-13T08:36:12;97884.03;;;24.09;74.00
9822;BME280;4950;46.042;14.472;2023-07-13T08:38:39;97879.00;;;24.13;72.87
9822;BME280;4950;46.042;14.472;2023-07-13T08:41:12;97879.81;;;24.18;72.37
9822;BME280;4950;46.042;14.472;2023-07-13T08:43:39;97881.66;;;24.23;71.80
9822;BME280;4950;46.042;14.472;2023-07-13T08:46:12;97877.16;;;24.29;71.44
9822;BME280;4950;46.042;14.472;2023-07-13T08:48:43;97857.28;;;24.36;72.59
9822;BME280;4950;46.042;14.472;2023-07-13T08:51:21;97862.88;;;24.45;72.97
9822;BME280;4950;46.042;14.472;2023-07-13T08:53:54;97863.13;;;24.49;71.17
9822;BME280;4950;46.042;14.472;2023-07-13T08:56:23;97865.78;;;24.49;72.22
9822;BME280;4950;46.042;14.472;2023-07-13T08:58:54;97866.31;;;24.40;72.26
9822;BME280;4950;46.042;14.472;2023-07-13T09:01:28;97880.88;;;24.22;73.44
9822;BME280;4950;46.042;14.472;2023-07-13T09:04:02;97890.41;;;24.23;73.89
9822;BME280;4950;46.042;14.472;2023-07-13T09:06:36;97885.34;;;24.12;74.17
9822;BME280;4950;46.042;14.472;2023-07-13T09:09:08;97890.63;;;24.01;73.50
9822;BME280;4950;46.042;14.472;2023-07-13T09:11:45;97900.19;;;23.97;73.38
9822;BME280;4950;46.042;14.472;2023-07-13T09:14:34;97901.78;;;23.98;73.78
9822;BME280;4950;46.042;14.472;2023-07-13T09:17:08;97897.00;;;24.05;73.72
9822;BME280;4950;46.042;14.472;2023-07-13T09:19:40;97906.56;;;24.12;74.12
9822;BME280;4950;46.042;14.472;2023-07-13T09:22:13;97908.47;;;24.21;73.90
9822;BME280;4950;46.042;14.472;2023-07-13T09:24:52;97912.47;;;24.29;74.24
9822;BME280;4950;46.042;14.472;2023-07-13T09:27:22;97901.88;;;24.39;73.99
9822;BME280;4950;46.042;14.472;2023-07-13T09:29:54;97897.91;;;24.42;74.01
9822;BME280;4950;46.042;14.472;2023-07-13T09:32:25;97876.69;;;24.47;73.92
9822;BME280;4950;46.042;14.472;2023-07-13T09:34:54;97875.59;;;24.48;73.55
9822;BME280;4950;46.042;14.472;2023-07-13T09:37:23;97872.69;;;24.50;73.14
9822;BME280;4950;46.042;14.472;2023-07-13T09:39:54;97879.09;;;24.54;72.75
9822;BME280;4950;46.042;14.472;2023-07-13T09:42:23;97884.41;;;24.59;72.50
9822;BME280;4950;46.042;14.472;2023-07-13T09:44:54;97878.03;;;24.65;71.98
9822;BME280;4950;46.042;14.472;2023-07-13T09:47:23;97870.06;;;24.70;72.26
9822;BME280;4950;46.042;14.472;2023-07-13T09:49:58;97869.81;;;24.77;71.85
9822;BME280;4950;46.042;14.472;2023-07-13T09:52:26;97886.53;;;24.82;72.53
9822;BME280;4950;46.042;14.472;2023-07-13T09:54:54;97885.47;;;24.89;72.51
9822;BME280;4950;46.042;14.472;2023-07-13T09:57:25;97880.69;;;24.96;71.77
9822;BME280;4950;46.042;14.472;2023-07-13T09:59:55;97885.44;;;25.04;72.00
9822;BME280;4950;46.042;14.472;2023-07-13T10:02:26;97910.16;;;25.10;72.07
9822;BME280;4950;46.042;14.472;2023-07-13T10:04:59;97910.94;;;25.10;72.26
9822;BME280;4950;46.042;14.472;2023-07-13T10:07:26;97909.88;;;25.16;72.49
9822;BME280;4950;46.042;14.472;2023-07-13T10:09:53;97899.25;;;25.21;71.99
9822;BME280;4950;46.042;14.472;2023-07-13T10:12:21;97901.91;;;25.27;71.80
9822;BME280;4950;46.042;14.472;2023-07-13T10:14:52;97906.69;;;25.30;71.42
9822;BME280;4950;46.042;14.472;2023-07-13T10:17:26;97883.81;;;25.29;70.92
9822;BME280;4950;46.042;14.472;2023-07-13T10:19:59;97881.97;;;25.29;70.85
9822;BME280;4950;46.042;14.472;2023-07-13T10:22:36;97875.56;;;25.30;71.34
9822;BME280;4950;46.042;14.472;2023-07-13T10:25:15;97878.50;;;25.34;71.45
9822;BME280;4950;46.042;14.472;2023-07-13T10:27:43;97885.38;;;25.35;71.69
9822;BME280;4950;46.042;14.472;2023-07-13T10:30:14;97887.78;;;25.36;71.19
9822;BME280;4950;46.042;14.472;2023-07-13T10:32:43;97873.44;;;25.37;71.02
9822;BME280;4950;46.042;14.472;2023-07-13T10:35:14;97856.72;;;25.37;70.74
9822;BME280;4950;46.042;14.472;2023-07-13T10:37:48;97846.06;;;25.37;71.18
9822;BME280;4950;46.042;14.472;2023-07-13T10:40:19;97846.31;;;25.40;71.18
9822;BME280;4950;46.042;14.472;2023-07-13T10:42:50;97844.94;;;25.48;72.07
9822;BME280;4950;46.042;14.472;2023-07-13T10:45:20;97844.94;;;25.53;72.52
9822;BME280;4950;46.042;14.472;2023-07-13T10:47:49;97823.66;;;25.58;72.72
9822;BME280;4950;46.042;14.472;2023-07-13T10:50:22;97798.91;;;25.58;72.70
9822;BME280;4950;46.042;14.472;2023-07-13T10:52:51;97815.16;;;25.56;72.54
9822;BME280;4950;46.042;14.472;2023-07-13T10:55:33;97859.81;;;25.54;73.01
9822;BME280;4950;46.042;14.472;2023-07-13T10:58:02;97871.53;;;25.53;73.57
9822;BME280;4950;46.042;14.472;2023-07-13T11:00:32;97870.22;;;25.51;73.76
9822;BME280;4950;46.042;14.472;2023-07-13T11:03:13;97832.94;;;25.56;72.64
9822;BME280;4950;46.042;14.472;2023-07-13T11:05:42;97841.22;;;25.49;72.99
9822;BME280;4950;46.042;14.472;2023-07-13T11:08:16;97866.78;;;25.40;73.15
9822;BME280;4950;46.042;14.472;2023-07-13T11:10:48;97888.03;;;25.35;74.55
9822;BME280;4950;46.042;14.472;2023-07-13T11:13:38;97878.22;;;25.30;75.87
9822;BME280;4950;46.042;14.472;2023-07-13T11:16:43;97829.13;;;24.92;78.03
9822;BME280;4950;46.042;14.472;2023-07-13T11:19:41;97816.97;;;24.55;81.07
9822;BME280;4950;46.042;14.472;2023-07-13T11:22:40;97806.06;;;24.41;81.33
9822;BME280;4950;46.042;14.472;2023-07-13T11:25:28;97794.94;;;24.49;80.61
9822;BME280;4950;46.042;14.472;2023-07-13T11:28:11;97787.50;;;24.61;81.11
9822;BME280;4950;46.042;14.472;2023-07-13T11:30:40;97780.31;;;24.67;81.61
9822;BME280;4950;46.042;14.472;2023-07-13T11:33:13;97758.31;;;24.51;81.08
9822;BME280;4950;46.042;14.472;2023-07-13T11:35:45;97747.13;;;24.39;83.23
9822;BME280;4950;46.042;14.472;2023-07-13T11:38:17;97759.88;;;24.27;83.98
9822;BME280;4950;46.042;14.472;2023-07-13T11:40:45;97783.22;;;24.09;84.63
9822;BME280;4950;46.042;14.472;2023-07-13T11:43:14;97803.63;;;23.83;86.00
9822;BME280;4950;46.042;14.472;2023-07-13T11:45:42;97839.00;;;23.51;88.97
9822;BME280;4950;46.042;14.472;2023-07-13T11:48:19;97868.59;;;23.33;90.39
9822;BME280;4950;46.042;14.472;2023-07-13T11:50:51;97861.34;;;23.18;90.31
9822;BME280;4950;46.042;14.472;2023-07-13T11:53:20;97792.50;;;23.13;91.38
9822;BME280;4950;46.042;14.472;2023-07-13T11:55:47;97869.31;;;23.18;91.46
9822;BME280;4950;46.042;14.472;2023-07-13T11:58:18;97930.50;;;23.16;90.86
9822;BME280;4950;46.042;14.472;2023-07-13T12:00:47;97858.91;;;23.06;91.98
9822;BME280;4950;46.042;14.472;2023-07-13T12:03:20;97813.31;;;22.99;92.32
9822;BME280;4950;46.042;14.472;2023-07-13T12:06:00;97853.31;;;23.02;93.14
9822;BME280;4950;46.042;14.472;2023-07-13T12:08:29;97887.09;;;22.90;93.09
9822;BME280;4950;46.042;14.472;2023-07-13T12:10:58;97886.25;;;22.79;92.00
9822;BME280;4950;46.042;14.472;2023-07-13T12:13:26;97854.69;;;22.73;90.90
9822;BME280;4950;46.042;14.472;2023-07-13T12:15:53;97785.41;;;22.86;89.39
9822;BME280;4950;46.042;14.472;2023-07-13T12:18:22;97766.41;;;22.94;89.28
9822;BME280;4950;46.042;14.472;2023-07-13T12:20:50;97772.53;;;23.00;88.22
9822;BME280;4950;46.042;14.472;2023-07-13T12:23:23;97800.69;;;23.11;88.46
9822;BME280;4950;46.042;14.472;2023-07-13T12:25:52;97841.50;;;23.15;88.57
9822;BME280;4950;46.042;14.472;2023-07-13T12:28:21;97893.34;;;23.06;87.07
9822;BME280;4950;46.042;14.472;2023-07-13T12:30:48;97923.03;;;22.81;85.04
9822;BME280;4950;46.042;14.472;2023-07-13T12:33:16;97880.91;;;22.74;85.36
9822;BME280;4950;46.042;14.472;2023-07-13T12:35:46;97901.16;;;22.58;83.32
9822;BME280;4950;46.042;14.472;2023-07-13T12:38:13;97852.97;;;22.56;83.76
9822;BME280;4950;46.042;14.472;2023-07-13T12:40:40;97839.41;;;22.47;84.27
9822;BME280;4950;46.042;14.472;2023-07-13T12:43:12;97869.03;;;22.44;84.34
9822;BME280;4950;46.042;14.472;2023-07-13T12:45:54;97868.97;;;22.39;83.60
9822;BME280;4950;46.042;14.472;2023-07-13T12:48:22;97857.91;;;22.47;83.74
9822;BME280;4950;46.042;14.472;2023-07-13T12:50:50;97877.81;;;22.55;84.22
9822;BME280;4950;46.042;14.472;2023-07-13T12:53:19;97865.75;;;22.64;82.31
9822;BME280;4950;46.042;14.472;2023-07-13T12:55:49;97848.06;;;22.70;82.05
9822;BME280;4950;46.042;14.472;2023-07-13T12:58:21;97843.91;;;22.79;81.06
9822;BME280;4950;46.042;14.472;2023-07-13T13:00:51;97843.34;;;22.45;82.50
9822;BME280;4950;46.042;14.472;2023-07-13T13:03:25;97837.44;;;22.33;84.79
9822;BME280;4950;46.042;14.472;2023-07-13T13:06:00;97876.28;;;22.32;85.10
9822;BME280;4950;46.042;14.472;2023-07-13T13:08:29;97876.41;;;22.42;85.87
9822;BME280;4950;46.042;14.472;2023-07-13T13:10:55;97845.81;;;22.57;86.58
9822;BME280;4950;46.042;14.472;2023-07-13T13:13:23;97830.53;;;22.64;85.89
9822;BME280;4950;46.042;14.472;2023-07-13T13:15:51;97830.00;;;22.62;85.92
9822;BME280;4950;46.042;14.472;2023-07-13T13:18:18;97849.84;;;22.64;86.54
9822;BME280;4950;46.042;14.472;2023-07-13T13:20:45;97857.56;;;22.71;87.09
9822;BME280;4950;46.042;14.472;2023-07-13T13:23:13;97858.16;;;22.73;87.24